createdAt,value
2019-05-09T00:01:19.623Z,9.65
2019-05-09T00:06:15.947Z,10.17
2019-05-09T00:08:44.549Z,11.93
2019-05-09T00:11:14.474Z,11.53
2019-05-09T00:13:44.224Z,12.68
2019-05-09T00:18:44.110Z,10.03
2019-05-09T00:21:20.997Z,10.45
2019-05-09T00:23:50.183Z,12.53
2019-05-09T00:26:18.697Z,11.55
2019-05-09T00:28:48.936Z,12.20
2019-05-09T00:31:28.451Z,10.50
2019-05-09T00:33:59.289Z,10.43
2019-05-09T00:36:28.439Z,8.85
2019-05-09T00:38:57.015Z,9.83
2019-05-09T00:41:25.559Z,8.40
2019-05-09T00:43:56.014Z,8.93
2019-05-09T00:46:26.763Z,6.42
2019-05-09T00:48:57.248Z,8.57
2019-05-09T00:51:26.117Z,5.53
2019-05-09T00:53:54.626Z,6.53
2019-05-09T00:56:23.928Z,6.30
2019-05-09T00:58:53.709Z,5.78
2019-05-09T01:01:24.024Z,6.28
2019-05-09T01:03:53.854Z,4.08
2019-05-09T01:06:23.878Z,4.20
2019-05-09T01:08:53.796Z,3.73
2019-05-09T01:11:24.387Z,3.37
2019-05-09T01:13:54.429Z,5.37
2019-05-09T01:16:24.726Z,5.53
2019-05-09T01:18:54.638Z,4.53
2019-05-09T01:21:24.191Z,4.40
2019-05-09T01:23:54.000Z,4.67
2019-05-09T01:26:23.997Z,6.20
2019-05-09T01:28:54.099Z,3.50
2019-05-09T01:31:24.242Z,4.53
2019-05-09T01:34:00.889Z,6.97
2019-05-09T01:36:47.728Z,7.13
2019-05-09T01:39:16.987Z,6.08
2019-05-09T01:44:13.805Z,6.78
2019-05-09T01:49:13.842Z,7.25
2019-05-09T01:51:44.475Z,7.10
2019-05-09T01:54:14.902Z,7.75
2019-05-09T01:56:44.061Z,11.90
2019-05-09T02:01:43.422Z,8.03
2019-05-09T02:04:13.757Z,9.15
2019-05-09T02:06:44.044Z,8.43
2019-05-09T02:09:14.013Z,8.23
2019-05-09T02:11:45.707Z,7.60
2019-05-09T02:14:16.715Z,8.25
2019-05-09T02:16:53.854Z,8.40
2019-05-09T02:19:24.655Z,7.60
2019-05-09T02:21:53.871Z,7.58
2019-05-09T02:24:23.419Z,7.37
2019-05-09T02:26:53.318Z,7.37
2019-05-09T02:29:23.240Z,9.25
2019-05-09T02:31:54.621Z,8.95
2019-05-09T02:34:24.905Z,10.32
2019-05-09T02:36:54.344Z,8.78
2019-05-09T02:42:04.790Z,9.53
2019-05-09T02:44:21.543Z,9.43
2019-05-09T02:46:58.887Z,11.10
2019-05-09T02:49:28.834Z,10.90
2019-05-09T02:51:59.332Z,9.85
2019-05-09T02:54:29.792Z,10.55
2019-05-09T02:56:59.469Z,9.93
2019-05-09T03:02:02.237Z,10.38
2019-05-09T03:04:31.496Z,11.75
2019-05-09T03:09:28.953Z,11.65
2019-05-09T03:11:59.248Z,12.45
2019-05-09T03:14:29.072Z,13.35
2019-05-09T03:19:29.678Z,11.50
2019-05-09T03:22:00.086Z,14.00
2019-05-09T03:24:29.263Z,22.22
2019-05-09T03:29:29.982Z,13.98
2019-05-09T03:32:00.239Z,15.90
2019-05-09T03:34:30.338Z,15.93
2019-05-09T03:36:59.594Z,15.13
2019-05-09T03:41:57.379Z,17.62
2019-05-09T03:44:28.307Z,16.52
2019-05-09T03:47:02.366Z,16.80
2019-05-09T03:49:31.581Z,16.25
2019-05-09T03:54:28.386Z,17.10
2019-05-09T03:57:01.788Z,18.17
2019-05-09T03:59:30.969Z,17.30
2019-05-09T04:04:28.249Z,15.95
2019-05-09T04:06:58.199Z,18.20
2019-05-09T04:09:27.599Z,17.95
2019-05-09T04:14:28.066Z,22.07
2019-05-09T04:16:57.502Z,19.65
2019-05-09T04:19:27.609Z,17.73
2019-05-09T04:21:57.542Z,15.98
2019-05-09T04:24:28.533Z,18.67
2019-05-09T04:27:07.665Z,17.07
2019-05-09T04:29:37.413Z,17.87
2019-05-09T04:32:07.980Z,18.98
2019-05-09T04:34:38.043Z,19.12
2019-05-09T04:37:08.482Z,16.93
2019-05-09T04:39:40.611Z,18.25
2019-05-09T04:42:09.395Z,18.50
2019-05-09T04:44:43.162Z,17.12
2019-05-09T04:47:12.336Z,18.07
2019-05-09T04:52:10.405Z,19.40
2019-05-09T04:54:38.974Z,19.62
2019-05-09T04:57:08.030Z,21.50
2019-05-09T04:59:37.485Z,18.62
2019-05-09T05:02:14.142Z,20.02
2019-05-09T05:04:43.420Z,22.75
2019-05-09T05:07:13.190Z,26.07
2019-05-09T05:09:42.352Z,27.10
2019-05-09T05:14:39.166Z,22.82
2019-05-09T05:19:38.307Z,23.98
2019-05-09T05:22:11.758Z,28.52
2019-05-09T05:24:48.906Z,25.68
2019-05-09T05:27:18.822Z,27.30
2019-05-09T05:29:48.247Z,25.35
2019-05-09T05:35:03.472Z,22.05
2019-05-09T05:37:32.715Z,26.90
2019-05-09T05:42:29.322Z,24.45
2019-05-09T05:44:58.400Z,31.00
2019-05-09T05:47:35.220Z,29.72
2019-05-09T05:50:05.055Z,31.90
2019-05-09T05:52:34.211Z,34.98
2019-05-09T05:55:03.289Z,38.93
2019-05-09T05:57:32.392Z,38.02
2019-05-09T06:02:29.109Z,37.03
2019-05-09T06:07:28.507Z,38.28
2019-05-09T06:09:57.739Z,37.05
2019-05-09T06:12:27.639Z,35.48
2019-05-09T06:14:58.172Z,38.33
2019-05-09T06:17:28.628Z,35.68
2019-05-09T06:19:58.874Z,39.33
2019-05-09T06:22:28.327Z,36.73
2019-05-09T06:24:58.287Z,33.23
2019-05-09T06:27:27.674Z,38.05
2019-05-09T06:29:58.174Z,37.03
2019-05-09T06:32:27.958Z,39.75
2019-05-09T06:34:57.781Z,36.05
2019-05-09T06:37:27.791Z,37.35
2019-05-09T06:39:58.270Z,39.55
2019-05-09T06:42:28.678Z,35.33
2019-05-09T06:45:02.576Z,38.75
2019-05-09T06:47:33.452Z,39.18
2019-05-09T06:50:04.357Z,36.73
2019-05-09T06:52:33.551Z,37.95
2019-05-09T06:57:30.235Z,36.28
2019-05-09T07:02:34.724Z,38.55
2019-05-09T07:05:09.448Z,38.80
2019-05-09T07:07:40.196Z,37.80
2019-05-09T07:10:10.200Z,37.60
2019-05-09T07:12:39.310Z,38.08
2019-05-09T07:17:38.697Z,36.48
2019-05-09T07:20:08.631Z,32.70
2019-05-09T07:22:48.378Z,34.73
2019-05-09T07:25:19.209Z,33.53
2019-05-09T07:27:48.460Z,34.93
2019-05-09T07:30:20.862Z,31.27
2019-05-09T07:33:03.268Z,34.47
2019-05-09T07:35:32.430Z,36.90
2019-05-09T07:40:30.716Z,38.17
2019-05-09T07:43:00.103Z,37.98
2019-05-09T07:47:58.357Z,41.35
2019-05-09T07:50:27.895Z,38.30
2019-05-09T07:55:27.448Z,43.63
2019-05-09T07:57:59.095Z,40.50
2019-05-09T08:00:34.846Z,39.35
2019-05-09T08:03:04.162Z,40.00
2019-05-09T08:05:33.478Z,40.65
2019-05-09T08:08:03.702Z,43.73
2019-05-09T08:10:33.517Z,42.65
2019-05-09T08:13:02.700Z,39.75
2019-05-09T08:17:59.699Z,39.83
2019-05-09T08:23:01.361Z,34.17
2019-05-09T08:25:27.967Z,38.20
2019-05-09T08:27:58.800Z,39.38
2019-05-09T08:30:35.539Z,36.30
2019-05-09T08:32:59.972Z,37.35
2019-05-09T08:35:29.405Z,37.88
2019-05-09T08:40:28.375Z,37.35
2019-05-09T08:42:58.920Z,36.60
2019-05-09T08:45:31.251Z,39.63
2019-05-09T08:47:58.982Z,37.43
2019-05-09T08:50:29.886Z,38.95
2019-05-09T08:52:58.807Z,32.17
2019-05-09T08:55:27.952Z,33.63
2019-05-09T08:57:58.666Z,30.63
2019-05-09T09:00:28.187Z,30.80
2019-05-09T09:02:57.571Z,31.70
2019-05-09T09:05:28.890Z,30.97
2019-05-09T09:07:57.983Z,31.97
2019-05-09T09:10:29.069Z,32.13
2019-05-09T09:12:58.157Z,30.87
2019-05-09T09:15:53.647Z,29.77
2019-05-09T09:17:58.066Z,29.70
2019-05-09T09:20:28.858Z,29.83
2019-05-09T09:22:58.429Z,29.03
2019-05-09T09:25:28.650Z,28.90
2019-05-09T09:27:58.332Z,31.93
2019-05-09T09:30:29.199Z,29.27
2019-05-09T09:32:58.712Z,25.57
2019-05-09T09:35:28.031Z,28.37
2019-05-09T09:37:58.094Z,27.27
2019-05-09T09:40:27.962Z,27.60
2019-05-09T09:42:58.019Z,27.03
2019-05-09T09:45:28.057Z,26.47
2019-05-09T09:47:59.215Z,26.27
2019-05-09T09:50:28.296Z,25.40
2019-05-09T09:52:58.944Z,23.73
2019-05-09T09:55:28.031Z,23.33
2019-05-09T09:57:57.802Z,23.27
2019-05-09T10:00:38.250Z,24.27
2019-05-09T10:03:07.986Z,24.30
2019-05-09T10:05:38.067Z,23.60
2019-05-09T10:08:10.376Z,22.83
2019-05-09T10:10:38.176Z,20.60
2019-05-09T10:13:10.450Z,22.40
2019-05-09T10:15:42.077Z,18.97
2019-05-09T10:18:21.716Z,18.00
2019-05-09T10:20:55.168Z,19.77
2019-05-09T10:23:24.079Z,17.50
2019-05-09T10:25:52.958Z,15.60
2019-05-09T10:30:50.423Z,16.87
2019-05-09T10:35:47.905Z,18.85
2019-05-09T10:38:18.409Z,13.23
2019-05-09T10:40:48.470Z,12.80
2019-05-09T10:43:34.851Z,15.37
2019-05-09T10:46:14.989Z,12.77
2019-05-09T10:48:43.021Z,14.53
2019-05-09T10:51:11.815Z,15.50
2019-05-09T10:56:08.862Z,10.90
2019-05-09T10:58:37.839Z,10.53
2019-05-09T11:01:09.085Z,15.87
2019-05-09T11:03:37.731Z,9.30
2019-05-09T11:06:08.605Z,13.07
2019-05-09T11:08:38.057Z,12.50
2019-05-09T11:11:09.335Z,12.17
2019-05-09T11:13:39.022Z,9.63
2019-05-09T11:16:08.254Z,9.03
2019-05-09T11:18:37.108Z,10.23
2019-05-09T11:23:33.698Z,8.80
2019-05-09T11:28:30.291Z,6.90
2019-05-09T11:33:27.785Z,6.75
2019-05-09T11:35:58.070Z,7.17
2019-05-09T11:38:35.336Z,12.43
2019-05-09T11:40:58.126Z,8.47
2019-05-09T11:43:29.671Z,6.93
2019-05-09T11:45:58.652Z,8.07
2019-05-09T11:48:28.432Z,7.10
2019-05-09T11:50:57.993Z,11.37
2019-05-09T11:53:28.781Z,15.27
2019-05-09T11:55:58.002Z,9.40
2019-05-09T11:58:28.012Z,10.60
2019-05-09T12:00:57.075Z,10.73
2019-05-09T12:03:25.918Z,6.60
2019-05-09T12:05:54.852Z,8.67
2019-05-09T12:08:23.714Z,8.13
2019-05-09T12:10:52.583Z,11.63
2019-05-09T12:13:21.432Z,7.37
2019-05-09T12:18:17.973Z,8.63
2019-05-09T12:20:48.387Z,8.40
2019-05-09T12:23:19.861Z,6.60
2019-05-09T12:25:48.005Z,7.10
2019-05-09T12:28:18.914Z,8.27
2019-05-09T12:30:48.990Z,6.23
2019-05-09T12:33:18.757Z,5.57
2019-05-09T12:35:47.923Z,3.33
2019-05-09T12:38:18.028Z,7.90
2019-05-09T12:40:48.248Z,6.17
2019-05-09T12:43:18.521Z,6.87
2019-05-09T12:45:47.882Z,3.97
2019-05-09T12:48:19.208Z,5.20
2019-05-09T12:50:48.885Z,6.20
2019-05-09T12:53:18.894Z,4.10
2019-05-09T12:55:49.562Z,5.53
2019-05-09T12:58:27.849Z,3.80
2019-05-09T13:00:58.622Z,6.47
2019-05-09T13:03:28.823Z,6.43
2019-05-09T13:05:58.163Z,4.30
2019-05-09T13:08:27.843Z,4.53
2019-05-09T13:10:58.379Z,5.37
2019-05-09T13:13:30.236Z,4.50
2019-05-09T13:16:05.632Z,4.07
2019-05-09T13:18:52.080Z,6.67
2019-05-09T13:21:20.939Z,6.77
2019-05-09T13:23:52.255Z,3.63
2019-05-09T13:26:20.411Z,3.03
2019-05-09T13:28:49.241Z,4.17
2019-05-09T13:33:48.784Z,3.80
2019-05-09T13:36:18.940Z,5.40
2019-05-09T13:39:00.573Z,4.17
2019-05-09T13:41:18.450Z,4.33
2019-05-09T13:43:57.711Z,4.17
2019-05-09T13:46:18.088Z,3.00
2019-05-09T13:49:06.239Z,4.87
2019-05-09T13:51:18.516Z,3.43
2019-05-09T13:53:48.364Z,3.50
2019-05-09T13:56:17.972Z,3.83
2019-05-09T13:58:48.723Z,4.00
2019-05-09T14:01:17.718Z,4.40
2019-05-09T14:03:48.997Z,5.27
2019-05-09T14:06:17.216Z,3.97
2019-05-09T14:08:49.045Z,3.43
2019-05-09T14:11:19.071Z,7.43
2019-05-09T14:13:48.747Z,5.77
2019-05-09T14:16:22.091Z,3.50
2019-05-09T14:18:48.701Z,4.67
2019-05-09T14:21:21.570Z,4.43
2019-05-09T14:24:03.545Z,6.03
2019-05-09T14:26:18.803Z,3.60
2019-05-09T14:28:49.020Z,6.10
2019-05-09T14:31:18.844Z,4.27
2019-05-09T14:33:47.919Z,4.17
2019-05-09T14:36:16.785Z,3.17
2019-05-09T14:38:48.298Z,7.70
2019-05-09T14:41:16.283Z,4.03
2019-05-09T14:43:45.129Z,3.43
2019-05-09T14:46:13.994Z,3.87
2019-05-09T14:48:42.849Z,5.17
2019-05-09T14:51:11.706Z,4.53
2019-05-09T14:53:40.559Z,13.53
2019-05-09T14:56:09.395Z,5.63
2019-05-09T14:58:38.927Z,6.00
2019-05-09T15:01:08.620Z,4.77
2019-05-09T15:03:38.835Z,4.07
2019-05-09T15:06:07.995Z,4.63
2019-05-09T15:08:38.279Z,4.57
2019-05-09T15:11:09.772Z,8.33
2019-05-09T15:13:37.837Z,5.27
2019-05-09T15:16:08.706Z,3.53
2019-05-09T15:18:38.636Z,3.30
2019-05-09T15:21:08.050Z,3.77
2019-05-09T15:23:39.090Z,5.20
2019-05-09T15:26:07.773Z,3.17
2019-05-09T15:28:38.536Z,6.60
2019-05-09T15:31:08.875Z,3.67
2019-05-09T15:33:37.825Z,7.47
2019-05-09T15:36:09.025Z,3.87
2019-05-09T15:38:37.978Z,4.40
2019-05-09T15:41:12.025Z,4.80
2019-05-09T15:43:38.115Z,4.97
2019-05-09T15:46:14.794Z,11.77
2019-05-09T15:48:43.662Z,10.20
2019-05-09T15:51:12.470Z,17.47
2019-05-09T15:53:41.276Z,5.67
2019-05-09T15:56:10.138Z,3.07
2019-05-09T15:58:39.007Z,2.63
2019-05-09T16:01:08.325Z,4.73
2019-05-09T16:03:38.269Z,2.60
2019-05-09T16:06:09.052Z,3.83
2019-05-09T16:08:38.210Z,3.57
2019-05-09T16:11:08.735Z,4.50
2019-05-09T16:13:37.711Z,2.97
2019-05-09T16:16:08.814Z,4.60
2019-05-09T16:18:37.224Z,6.17
2019-05-09T16:21:08.413Z,5.27
2019-05-09T16:23:38.112Z,6.77
2019-05-09T16:26:07.901Z,7.93
2019-05-09T16:28:37.929Z,6.23
2019-05-09T16:31:07.005Z,4.77
2019-05-09T16:33:35.870Z,6.43
2019-05-09T16:36:04.803Z,5.87
2019-05-09T16:38:43.454Z,4.37
2019-05-09T16:41:04.244Z,5.40
2019-05-09T16:43:33.075Z,3.93
2019-05-09T16:46:01.879Z,6.57
2019-05-09T16:48:30.723Z,4.93
2019-05-09T16:51:03.154Z,4.87
2019-05-09T16:53:30.102Z,5.77
2019-05-09T16:55:59.024Z,5.87
2019-05-09T16:58:27.887Z,5.23
2019-05-09T17:00:56.737Z,6.07
2019-05-09T17:03:25.614Z,8.57
2019-05-09T17:05:54.462Z,4.30
2019-05-09T17:08:23.393Z,5.43
2019-05-09T17:10:52.252Z,7.30
2019-05-09T17:13:21.103Z,4.47
2019-05-09T17:15:50.058Z,4.77
2019-05-09T17:18:19.304Z,3.70
2019-05-09T17:20:52.579Z,2.47
2019-05-09T17:23:23.112Z,7.60
2019-05-09T17:25:52.109Z,4.47
2019-05-09T17:28:21.082Z,4.57
2019-05-09T17:30:49.888Z,3.37
2019-05-09T17:33:18.805Z,4.27
2019-05-09T17:35:48.400Z,3.83
2019-05-09T17:38:18.080Z,4.63
2019-05-09T17:40:48.553Z,4.27
2019-05-09T17:43:18.247Z,5.37
2019-05-09T17:45:47.903Z,3.80
2019-05-09T17:48:18.383Z,6.73
2019-05-09T17:50:47.550Z,4.20
2019-05-09T17:53:18.206Z,3.77
2019-05-09T17:55:47.734Z,3.67
2019-05-09T17:58:27.294Z,1.97
2019-05-09T18:00:48.630Z,3.27
2019-05-09T18:03:18.244Z,3.80
2019-05-09T18:05:48.563Z,5.93
2019-05-09T18:08:18.748Z,4.20
2019-05-09T18:10:48.554Z,4.20
2019-05-09T18:13:23.658Z,3.60
2019-05-09T18:15:48.437Z,2.63
2019-05-09T18:18:18.470Z,3.23
2019-05-09T18:20:47.576Z,3.33
2019-05-09T18:25:45.621Z,4.42
2019-05-09T18:30:42.299Z,3.20
2019-05-09T18:33:28.091Z,7.83
2019-05-09T18:35:57.634Z,2.90
2019-05-09T18:38:29.716Z,5.37
2019-05-09T18:40:58.649Z,4.13
2019-05-09T18:43:27.665Z,5.97
2019-05-09T18:45:57.696Z,4.33
2019-05-09T18:48:27.999Z,3.83
2019-05-09T18:50:56.948Z,5.87
2019-05-09T18:55:53.645Z,4.45
2019-05-09T18:58:22.494Z,5.27
2019-05-09T19:05:47.522Z,5.58
2019-05-09T19:10:44.217Z,3.72
2019-05-09T19:15:51.753Z,5.37
2019-05-09T19:18:22.267Z,5.03
2019-05-09T19:20:55.642Z,3.50
2019-05-09T19:23:24.437Z,3.67
2019-05-09T19:28:24.035Z,6.78
2019-05-09T19:30:51.717Z,4.63
2019-05-09T19:35:48.241Z,6.55
2019-05-09T19:40:44.920Z,5.75
2019-05-09T19:45:41.542Z,8.65
2019-05-09T19:50:37.783Z,7.43
2019-05-09T19:55:34.461Z,4.90
2019-05-09T20:00:31.204Z,6.15
2019-05-09T20:05:27.818Z,8.58
2019-05-09T20:10:26.137Z,4.83
2019-05-09T20:13:08.907Z,8.33
2019-05-09T20:15:37.776Z,5.90
2019-05-09T20:20:34.496Z,5.72
2019-05-09T20:25:31.147Z,6.83
2019-05-09T20:27:59.658Z,5.22
2019-05-09T20:30:28.521Z,9.77
2019-05-09T20:32:57.379Z,5.27
2019-05-09T20:37:54.233Z,6.83
2019-05-09T20:40:23.270Z,6.90
2019-05-09T20:42:52.249Z,6.43
2019-05-09T20:45:21.348Z,6.20
2019-05-09T20:47:50.329Z,5.03
2019-05-09T20:50:19.742Z,10.38
2019-05-09T20:52:48.794Z,5.30
2019-05-09T20:55:17.905Z,6.30
2019-05-09T20:57:46.896Z,8.03
2019-05-09T21:00:16.183Z,6.87
2019-05-09T21:02:45.232Z,6.00
2019-05-09T21:05:14.517Z,10.33
2019-05-09T21:07:43.586Z,5.73
2019-05-09T21:10:12.813Z,6.47
2019-05-09T21:12:41.865Z,8.00
2019-05-09T21:15:11.404Z,7.10
2019-05-09T21:17:40.454Z,8.23
2019-05-09T21:20:09.935Z,12.90
2019-05-09T21:22:38.967Z,7.43
2019-05-09T21:25:08.599Z,8.10
2019-05-09T21:27:37.715Z,6.00
2019-05-09T21:30:08.752Z,7.80
2019-05-09T21:32:37.818Z,7.67
2019-05-09T21:35:07.007Z,5.80
2019-05-09T21:37:35.886Z,4.60
2019-05-09T21:40:07.268Z,6.80
2019-05-09T21:42:36.333Z,5.63
2019-05-09T21:45:06.738Z,10.13
2019-05-09T21:47:35.588Z,12.20
2019-05-09T21:52:33.279Z,9.70
2019-05-09T21:55:02.106Z,6.67
2019-05-09T21:57:30.966Z,10.93
2019-05-09T22:00:01.739Z,7.47
2019-05-09T22:04:58.500Z,8.43
2019-05-09T22:07:27.415Z,5.80
2019-05-09T22:12:24.005Z,5.37
2019-05-09T22:14:52.515Z,8.98
2019-05-09T22:19:50.539Z,5.50
2019-05-09T22:22:19.355Z,8.13
2019-05-09T22:27:16.122Z,7.20
2019-05-09T22:29:44.650Z,7.65
2019-05-09T22:34:41.519Z,7.87
2019-05-09T22:37:10.025Z,5.95
2019-05-09T22:39:38.613Z,8.83
2019-05-09T22:44:34.938Z,5.77
2019-05-09T22:49:31.536Z,9.30
2019-05-09T22:54:28.116Z,6.53
2019-05-09T22:56:56.628Z,7.37
2019-05-09T23:01:52.964Z,7.50
2019-05-09T23:06:49.632Z,7.22
2019-05-09T23:09:18.135Z,8.13
2019-05-09T23:11:46.741Z,7.55
2019-05-09T23:16:43.429Z,5.37
2019-05-09T23:21:40.169Z,6.60
2019-05-09T23:26:38.137Z,6.80
2019-05-09T23:29:06.985Z,6.15
2019-05-09T23:34:10.876Z,5.50
2019-05-09T23:36:39.812Z,7.87
2019-05-09T23:39:12.781Z,7.63
2019-05-09T23:41:41.649Z,5.33
2019-05-09T23:46:38.316Z,5.08
2019-05-09T23:51:42.403Z,6.63
2019-05-09T23:54:10.517Z,5.73
2019-05-09T23:56:57.162Z,4.65
2019-05-09T23:59:43.860Z,5.10
